Time;durP1;ratioP1;P1;durP2;ratioP2;P2;SDS_P1;SDS_P2;PMS_P1;PMS_P2;Temp;Humidity;BMP_temperature;BMP_pressure;BME280_temperature;BME280_humidity;BME280_pressure;Samples;Min_cycle;Max_cycle;Signal;HPM_P1;HPM_P2
2023/06/10 00:01:10;;;;;;;39.40;35.20;;;;;;;15.49;90.77;98510.20;225800;1281;22540;-80
2023/06/10 00:06:37;;;;;;;38.90;34.50;;;;;;;15.49;90.72;98511.01;225532;1283;24573;-81
2023/06/10 00:11:50;;;;;;;41.50;37.10;;;;;;;15.49;90.63;98503.92;225470;1283;24382;-81
2023/06/10 00:17:12;;;;;;;;;;;;;;;;;;;;;
2023/06/10 00:22:56;;;;;;;40.00;35.70;;;;;;;15.41;90.70;98509.54;225511;1283;22564;-80
2023/06/10 00:28:19;;;;;;;39.20;35.00;;;;;;;15.41;90.93;98514.54;225499;1282;22613;-80
2023/06/10 00:33:40;;;;;;;39.20;34.80;;;;;;;15.41;90.85;98511.91;225596;1283;24907;-81
2023/06/10 00:39:24;;;;;;;39.00;34.90;;;;;;;15.39;90.64;98514.31;225639;1281;22558;-80
2023/06/10 00:45:32;;;;;;;39.80;35.50;;;;;;;15.35;90.61;98514.23;226196;1279;24781;-80
2023/06/10 00:51:44;;;;;;;;;;;;;;;;;;;;;
2023/06/10 00:57:49;;;;;;;;;;;;;;;;;;;;;
2023/06/10 01:03:17;;;;;;;43.30;38.10;;;;;;;15.25;90.93;98530.15;226163;1279;22541;-80
2023/06/10 01:09:34;;;;;;;41.00;36.50;;;;;;;15.24;90.98;98524.55;226151;1279;24216;-80
2023/06/10 01:15:04;;;;;;;41.40;36.90;;;;;;;15.20;90.75;98523.31;226152;1279;24278;-80
2023/06/10 01:20:12;;;;;;;44.00;37.00;;;;;;;15.20;90.67;98527.29;226009;1279;22491;-80
2023/06/10 01:25:55;;;;;;;43.20;38.60;;;;;;;15.18;90.83;98533.33;226202;1279;22536;-80
2023/06/10 01:32:00;;;;;;;;;;;;;;;;;;;;;
2023/06/10 01:37:35;;;;;;;43.50;38.10;;;;;;;15.12;90.91;98529.64;226002;1280;22619;-80
2023/06/10 01:43:40;;;;;;;;;;;;;;;;;;;;;
2023/06/10 01:49:41;;;;;;;;;;;;;;;;;;;;;
2023/06/10 01:56:26;;;;;;;;;;;;;;;;;;;;;
2023/06/10 02:02:39;;;;;;;45.10;38.60;;;;;;;15.02;91.25;98542.52;225899;1281;22556;-79
2023/06/10 02:08:14;;;;;;;;;;;;;;;15.02;91.43;98542.92;226152;1279;22513;-80
2023/06/10 02:21:15;;;;;;;44.30;38.60;;;;;;;15.03;91.47;98551.02;226176;1279;22600;-80
2023/06/10 02:26:51;;;;;;;43.60;38.90;;;;;;;15.02;91.05;98547.02;225911;1279;22615;-80
2023/06/10 02:32:03;;;;;;;44.60;38.90;;;;;;;15.02;91.11;98553.23;226094;1277;22552;-80
2023/06/10 02:37:16;;;;;;;46.90;40.10;;;;;;;15.02;91.31;98548.41;225960;1279;22568;-79
2023/06/10 02:42:31;;;;;;;46.60;40.40;;;;;;;15.02;91.25;98549.84;225963;1279;22560;-80
2023/06/10 02:48:10;;;;;;;44.30;37.90;;;;;;;15.02;91.36;98550.99;225862;1280;22595;-80
2023/06/10 02:53:41;;;;;;;48.50;41.80;;;;;;;15.02;91.39;98554.99;226149;1279;25711;-80
2023/06/10 02:58:50;;;;;;;49.10;42.60;;;;;;;15.04;91.63;98557.77;226171;1276;22638;-80
2023/06/10 03:04:29;;;;;;;53.30;43.40;;;;;;;15.08;91.87;98557.98;225898;1280;22559;-80
2023/06/10 03:09:51;;;;;;;50.90;43.80;;;;;;;15.12;91.50;98559.77;226102;1279;22541;-80
2023/06/10 03:15:19;;;;;;;52.10;43.00;;;;;;;15.17;92.00;98556.67;226078;1279;22551;-80
2023/06/10 03:20:39;;;;;;;51.30;43.00;;;;;;;15.23;91.67;98553.46;225975;1279;22545;-80
2023/06/10 03:26:17;;;;;;;48.40;42.90;;;;;;;15.28;91.70;98562.33;225847;1279;22534;-80
2023/06/10 03:32:01;;;;;;;50.80;42.70;;;;;;;15.33;91.80;98563.45;226060;1279;22557;-80
2023/06/10 03:37:58;;;;;;;45.50;39.30;;;;;;;15.40;91.54;98566.65;226029;1279;22540;-80
2023/06/10 03:43:15;;;;;;;;;;;;;;;;;;;;;
2023/06/10 03:49:17;;;;;;;42.70;38.10;;;;;;;15.55;91.57;98570.20;226156;1279;22537;-80
2023/06/10 03:54:37;;;;;;;45.60;39.70;;;;;;;15.63;91.30;98575.14;226203;1273;22536;-79
2023/06/10 04:00:24;;;;;;;50.50;45.10;;;;;;;15.75;91.72;98579.27;226117;1279;22608;-81
2023/06/10 04:05:57;;;;;;;47.30;42.30;;;;;;;15.94;91.73;98575.12;225741;1281;22530;-79
2023/06/10 04:11:58;;;;;;;44.50;39.90;;;;;;;16.15;91.26;98574.23;225680;1281;22549;-79
2023/06/10 04:17:53;;;;;;;;;;;;;;;;;;;;;
2023/06/10 04:23:40;;;;;;;;;;;;;;;;;;;;;
2023/06/10 04:29:12;;;;;;;39.10;35.00;;;;;;;16.71;90.88;98588.34;225830;1281;22540;-80
2023/06/10 04:34:55;;;;;;;37.90;34.10;;;;;;;16.87;90.70;98574.92;225955;1279;22600;-80
2023/06/10 04:40:11;;;;;;;37.20;33.50;;;;;;;17.02;90.46;98577.73;226073;1276;22607;-81
2023/06/10 04:45:47;;;;;;;38.10;34.40;;;;;;;17.10;90.11;98582.69;226109;1279;22564;-80
2023/06/10 04:51:48;;;;;;;33.70;30.30;;;;;;;17.15;89.92;98584.20;226017;1279;22543;-80
2023/06/10 04:57:38;;;;;;;;;;;;;;;;;;;;;
2023/06/10 05:03:42;;;;;;;32.30;29.10;;;;;;;17.47;89.68;98582.29;226064;1279;22536;-80
2023/06/10 05:09:28;;;;;;;33.60;30.40;;;;;;;17.70;89.55;98582.20;226169;1279;22536;-80
2023/06/10 05:14:40;;;;;;;28.40;25.80;;;;;;;17.87;89.40;98581.67;226040;1276;22561;-79
2023/06/10 05:20:23;;;;;;;28.30;25.60;;;;;;;17.99;88.53;98584.73;225967;1270;22674;-80
2023/06/10 05:25:47;;;;;;;;;;;;;;;;;;;;;
2023/06/10 05:31:22;;;;;;;24.90;22.50;;;;;;;18.28;88.01;98593.15;226024;1279;22550;-80
2023/06/10 05:36:54;;;;;;;26.10;23.70;;;;;;;18.44;87.71;98594.16;225994;1279;22543;-79
2023/06/10 05:42:43;;;;;;;21.70;19.50;;;;;;;18.65;87.36;98601.90;226085;1279;22564;-79
2023/06/10 05:48:28;;;;;;;18.30;16.70;;;;;;;18.84;86.67;98604.77;226082;1279;22575;-79
2023/06/10 05:54:01;;;;;;;18.60;16.90;;;;;;;18.96;85.91;98609.23;226095;1279;22544;-79
2023/06/10 05:59:09;;;;;;;17.60;16.10;;;;;;;19.08;85.63;98608.27;225913;1277;22558;-79
2023/06/10 06:04:45;;;;;;;16.60;15.00;;;;;;;19.41;85.73;98613.96;226010;1279;22564;-79
2023/06/10 06:10:34;;;;;;;15.00;13.40;;;;;;;19.72;84.68;98615.79;226008;1279;22540;-80
2023/06/10 06:16:39;;;;;;;14.10;12.70;;;;;;;19.87;83.79;98616.45;223652;1278;3136847;-81
2023/06/10 06:22:21;;;;;;;13.80;12.50;;;;;;;19.88;83.08;98618.98;225987;1279;22547;-80
2023/06/10 06:28:00;;;;;;;;;;;;;;;;;;;;;
2023/06/10 06:33:39;;;;;;;;;;;;;;;;;;;;;
2023/06/10 06:39:45;;;;;;;15.00;13.60;;;;;;;19.65;82.05;98641.92;226054;1279;22551;-79
2023/06/10 06:45:00;;;;;;;13.50;12.30;;;;;;;19.59;82.06;98645.82;224712;1283;25237;-79
2023/06/10 06:51:29;;;;;;;14.20;12.80;;;;;;;19.66;82.27;98650.73;224767;1284;22569;-79
2023/06/10 06:56:51;;;;;;;;;;;;;;;19.79;82.04;98656.95;224738;1290;23262;-79
2023/06/10 07:02:32;;;;;;;14.00;12.60;;;;;;;19.84;81.72;98660.71;225093;1284;22558;-79
2023/06/10 07:07:38;;;;;;;14.00;12.70;;;;;;;19.85;81.62;98665.45;225362;1284;27010;-80
2023/06/10 07:13:12;;;;;;;14.50;12.90;;;;;;;19.89;81.63;98670.74;225462;1279;22542;-80
2023/06/10 07:18:40;;;;;;;13.90;12.60;;;;;;;19.97;81.38;98672.08;226039;1279;24241;-80
2023/06/10 07:23:46;;;;;;;12.70;11.40;;;;;;;20.01;81.01;98672.98;226068;1279;22713;-80
2023/06/10 07:29:10;;;;;;;13.30;12.10;;;;;;;20.01;80.80;98675.83;225881;1276;22572;-79
2023/06/10 07:34:20;;;;;;;12.90;11.60;;;;;;;20.11;80.98;98684.02;226103;1279;22528;-79
2023/06/10 07:39:32;;;;;;;12.30;10.90;;;;;;;20.26;80.62;98683.54;225940;1277;22544;-79
2023/06/10 07:45:11;;;;;;;12.30;11.10;;;;;;;20.43;80.66;98686.52;226049;1279;23669;-80
2023/06/10 07:50:53;;;;;;;11.50;10.30;;;;;;;20.72;80.38;98687.23;225984;1279;22540;-79
2023/06/10 07:56:33;;;;;;;12.70;11.60;;;;;;;20.87;79.31;98693.42;225960;1274;22576;-80
2023/06/10 08:01:42;;;;;;;14.10;12.80;;;;;;;20.95;78.80;98696.32;226037;1279;22578;-79
2023/06/10 08:07:03;;;;;;;13.00;11.80;;;;;;;20.95;78.47;98696.91;226037;1279;22533;-80
2023/06/10 08:12:09;;;;;;;11.70;10.50;;;;;;;20.91;78.35;98701.84;226067;1276;22560;-80
2023/06/10 08:17:37;;;;;;;11.60;10.60;;;;;;;20.93;78.29;98707.20;226015;1279;22585;-79
2023/06/10 08:23:12;;;;;;;11.80;10.80;;;;;;;20.94;78.26;98705.97;225927;1279;22540;-78
2023/06/10 08:28:54;;;;;;;10.40;9.50;;;;;;;20.93;78.02;98711.34;226025;1279;25266;-79
2023/06/10 08:34:05;;;;;;;12.10;10.90;;;;;;;20.96;77.98;98709.80;226099;1279;23013;-79
2023/06/10 08:39:17;;;;;;;14.00;11.50;;;;;;;21.02;77.67;98712.92;225915;1273;25030;-80
2023/06/10 08:45:01;;;;;;;12.10;10.90;;;;;;;21.08;77.50;98720.34;225791;1274;22544;-79
2023/06/10 08:50:11;;;;;;;11.20;10.20;;;;;;;21.30;77.61;98723.73;226126;1275;23071;-79
2023/06/10 08:55:42;;;;;;;10.10;9.20;;;;;;;21.58;77.00;98726.77;225985;1279;22524;-80
2023/06/10 09:01:47;;;;;;;10.90;9.90;;;;;;;21.73;76.20;98724.15;226101;1279;22736;-79
2023/06/10 09:06:59;;;;;;;11.00;10.00;;;;;;;21.90;76.02;98725.25;225988;1279;22541;-79
2023/06/10 09:12:20;;;;;;;10.40;9.40;;;;;;;22.02;75.47;98717.15;225901;1279;25481;-80
2023/06/10 09:17:29;;;;;;;10.50;9.60;;;;;;;22.18;75.06;98718.77;226113;1275;24212;-80
2023/06/10 09:22:55;;;;;;;;;;;;;;;;;;;;;
2023/06/10 09:28:12;;;;;;;10.30;9.40;;;;;;;22.71;73.88;98723.03;226022;1279;24287;-80
2023/06/10 09:33:16;;;;;;;11.60;10.60;;;;;;;23.04;73.64;98725.70;225993;1277;22614;-80
2023/06/10 09:38:52;;;;;;;10.60;9.50;;;;;;;23.38;72.49;98722.20;225591;1281;22546;-80
2023/06/10 09:44:09;;;;;;;11.30;10.20;;;;;;;23.72;71.71;98723.41;225642;1281;22575;-79
2023/06/10 09:49:16;;;;;;;10.70;9.60;;;;;;;23.98;70.97;98723.95;225614;1277;22572;-79
2023/06/10 09:54:34;;;;;;;9.70;8.90;;;;;;;24.12;70.11;98719.63;225754;1261;22591;-80
2023/06/10 09:59:45;;;;;;;11.90;10.90;;;;;;;24.14;69.83;98720.31;225685;1275;22542;-80
2023/06/10 10:04:53;;;;;;;11.80;10.90;;;;;;;24.37;70.06;98723.41;225565;1281;22542;-80
2023/06/10 10:10:18;;;;;;;10.40;9.50;;;;;;;24.71;69.95;98718.87;225827;1279;22548;-79
2023/06/10 10:15:41;;;;;;;9.00;8.20;;;;;;;24.91;68.61;98715.38;226114;1276;22552;-80
2023/06/10 10:20:55;;;;;;;9.20;8.50;;;;;;;24.97;67.56;98711.71;226122;1279;21782;-79
2023/06/10 10:26:05;;;;;;;9.20;8.30;;;;;;;25.02;66.99;98711.47;226000;1278;25410;-79
2023/06/10 10:31:18;;;;;;;8.60;7.90;;;;;;;25.13;66.94;98705.25;225873;1279;22541;-79
2023/06/10 10:36:27;;;;;;;7.30;6.70;;;;;;;25.17;66.31;98700.79;226042;1276;22566;-81
2023/06/10 10:41:42;;;;;;;7.30;6.60;;;;;;;25.28;65.23;98694.61;225957;1277;24286;-80
2023/06/10 10:47:02;;;;;;;6.80;6.20;;;;;;;25.17;64.26;98687.80;225916;1270;22576;-79
2023/06/10 10:52:11;;;;;;;7.10;6.40;;;;;;;25.16;64.80;98681.70;225979;1277;22562;-79
2023/06/10 10:57:17;;;;;;;5.30;4.90;;;;;;;25.20;64.45;98677.55;225804;1279;25339;-81
2023/06/10 11:02:53;;;;;;;5.30;4.90;;;;;;;25.14;62.91;98674.41;226012;1276;22548;-80
2023/06/10 11:08:14;;;;;;;7.00;5.70;;;;;;;25.02;62.68;98673.39;225905;1279;22532;-80
2023/06/10 11:13:28;;;;;;;6.80;6.20;;;;;;;24.79;62.33;98667.13;225976;1261;22680;-79
2023/06/10 11:18:41;;;;;;;5.90;5.30;;;;;;;24.67;62.35;98673.38;225997;1277;22563;-80
2023/06/10 11:23:47;;;;;;;6.00;5.40;;;;;;;24.58;61.92;98671.20;226259;1279;24264;-79
2023/06/10 11:29:08;;;;;;;5.40;4.90;;;;;;;24.49;61.41;98675.37;225939;1279;23217;-80
2023/06/10 11:34:12;;;;;;;5.60;5.10;;;;;;;24.30;61.24;98678.03;226201;1276;22978;-80
2023/06/10 11:39:15;;;;;;;5.50;5.10;;;;;;;24.19;61.34;98675.37;225949;1279;22540;-79
2023/06/10 11:44:17;;;;;;;6.00;5.50;;;;;;;24.14;61.65;98678.27;226032;1277;22671;-81
2023/06/10 11:49:21;;;;;;;7.10;6.10;;;;;;;24.26;62.49;98662.05;226186;1268;22626;-80
2023/06/10 11:54:25;;;;;;;6.00;5.50;;;;;;;24.48;62.73;98655.48;226174;1279;22782;-80
2023/06/10 11:59:38;;;;;;;5.90;5.40;;;;;;;24.64;61.57;98644.61;226062;1279;22562;-80
2023/06/10 12:04:51;;;;;;;6.10;5.60;;;;;;;24.74;61.88;98641.77;226231;1279;22572;-80
2023/06/10 12:10:04;;;;;;;6.60;6.10;;;;;;;24.90;62.52;98635.80;226009;1274;25286;-80
2023/06/10 12:15:28;;;;;;;6.60;6.10;;;;;;;25.16;62.29;98636.14;226024;1273;22545;-79
2023/06/10 12:20:37;;;;;;;7.00;6.40;;;;;;;25.33;61.89;98637.81;225885;1279;22535;-80
2023/06/10 12:25:51;;;;;;;7.10;6.60;;;;;;;25.46;61.50;98643.40;225959;1279;22592;-80
2023/06/10 12:31:20;;;;;;;8.60;6.40;;;;;;;25.56;60.35;98641.93;225949;1279;22535;-80
2023/06/10 12:36:24;;;;;;;8.00;7.30;;;;;;;25.69;59.51;98643.64;226186;1279;22635;-79
2023/06/10 12:41:33;;;;;;;7.80;7.00;;;;;;;25.78;59.15;98644.23;226065;1274;24739;-81
2023/06/10 12:46:37;;;;;;;7.80;7.00;;;;;;;25.82;58.37;98637.27;226244;1276;23181;-79
2023/06/10 12:51:40;;;;;;;7.40;6.70;;;;;;;25.93;59.21;98637.52;225969;1279;22579;-81
2023/06/10 12:56:43;;;;;;;7.80;7.00;;;;;;;26.15;59.33;98641.25;226003;1255;22551;-80
2023/06/10 13:01:54;;;;;;;7.40;6.80;;;;;;;26.25;58.07;98645.39;226170;1279;22550;-80
2023/06/10 13:07:04;;;;;;;7.00;6.50;;;;;;;26.28;57.60;98637.30;225965;1277;22544;-80
2023/06/10 13:12:13;;;;;;;7.30;6.70;;;;;;;26.48;57.85;98627.45;226134;1279;22577;-79
2023/06/10 13:17:21;;;;;;;7.50;6.80;;;;;;;26.66;57.81;98626.15;226139;1274;22495;-79
2023/06/10 13:22:34;;;;;;;7.40;6.80;;;;;;;26.79;57.08;98620.04;226068;1279;22566;-79
2023/06/10 13:27:38;;;;;;;8.00;7.30;;;;;;;26.91;57.35;98621.30;226263;1274;21963;-79
2023/06/10 13:32:41;;;;;;;6.40;6.00;;;;;;;27.06;57.21;98622.30;226031;1277;22541;-80
2023/06/10 13:37:53;;;;;;;6.90;6.40;;;;;;;27.13;56.94;98620.16;225916;1279;25078;-80
2023/06/10 13:43:09;;;;;;;7.30;6.70;;;;;;;27.00;57.18;98620.66;226260;1276;22558;-79
2023/06/10 13:48:26;;;;;;;7.40;6.90;;;;;;;26.84;56.57;98624.45;225961;1279;22551;-79
2023/06/10 13:53:29;;;;;;;7.40;6.70;;;;;;;26.72;56.41;98625.09;226020;1277;22542;-79
2023/06/10 13:58:38;;;;;;;8.10;7.40;;;;;;;26.48;56.60;98623.41;225992;1279;24201;-79
2023/06/10 14:03:57;;;;;;;8.20;7.50;;;;;;;25.99;56.96;98629.00;225930;1279;25350;-80
2023/06/10 14:09:00;;;;;;;9.90;8.50;;;;;;;25.44;58.43;98616.70;226292;1277;25193;-80
2023/06/10 14:14:19;;;;;;;8.30;7.60;;;;;;;25.06;59.49;98596.02;226238;1279;23011;-79
2023/06/10 14:19:27;;;;;;;8.90;8.20;;;;;;;24.96;60.16;98598.88;226003;1279;22543;-80
2023/06/10 14:24:44;;;;;;;10.00;9.20;;;;;;;25.09;60.48;98589.99;226203;1274;22545;-80
2023/06/10 14:29:52;;;;;;;8.50;7.80;;;;;;;25.17;60.26;98596.45;226233;1279;22547;-80
2023/06/10 14:35:00;;;;;;;10.00;8.10;;;;;;;24.79;59.66;98615.30;226120;1275;25483;-81
2023/06/10 14:40:26;;;;;;;9.00;8.10;;;;;;;23.77;60.59;98625.88;226130;1279;22588;-81
2023/06/10 14:45:29;;;;;;;8.40;7.50;;;;;;;22.62;63.05;98633.64;225960;1277;25265;-81
2023/06/10 14:50:46;;;;;;;8.20;6.90;;;;;;;21.80;64.09;98640.48;225975;1279;22547;-81
2023/06/10 14:55:53;;;;;;;9.00;8.20;;;;;;;21.21;64.76;98652.23;226313;1277;22549;-80
2023/06/10 15:00:56;;;;;;;6.80;6.10;;;;;;;20.90;65.90;98659.38;226021;1279;22532;-80
2023/06/10 15:06:03;;;;;;;5.60;5.10;;;;;;;20.73;65.93;98661.57;226044;1279;22543;-80
2023/06/10 15:11:25;;;;;;;5.20;4.70;;;;;;;20.67;65.73;98665.31;226076;1277;22537;-81
2023/06/10 15:16:36;;;;;;;4.30;3.90;;;;;;;20.62;65.53;98668.61;226014;1274;22572;-81
2023/06/10 15:21:42;;;;;;;4.90;4.40;;;;;;;20.59;65.51;98679.81;226024;1277;23014;-81
2023/06/10 15:26:45;;;;;;;4.60;4.10;;;;;;;20.51;65.98;98680.42;226019;1279;22547;-81
2023/06/10 15:32:26;;;;;;;4.60;4.20;;;;;;;20.46;66.54;98675.95;226041;1279;25251;-81
2023/06/10 15:38:31;;;;;;;5.00;4.60;;;;;;;20.46;66.76;98680.83;226209;1279;22566;-80
2023/06/10 15:44:02;;;;;;;5.10;4.50;;;;;;;20.44;66.71;98680.59;225662;1279;24237;-80
2023/06/10 15:49:17;;;;;;;6.10;4.30;;;;;;;20.45;67.12;98692.20;226224;1269;22549;-81
2023/06/10 15:54:38;;;;;;;5.30;4.90;;;;;;;20.51;67.29;98695.66;226011;1274;22561;-80
2023/06/10 15:59:52;;;;;;;6.10;5.50;;;;;;;20.57;67.47;98687.95;225989;1279;22551;-80
2023/06/10 16:05:21;;;;;;;8.00;6.30;;;;;;;20.67;67.85;98677.79;225644;1264;22532;-79
2023/06/10 16:10:45;;;;;;;7.30;6.70;;;;;;;20.79;68.13;98668.80;225628;1281;22863;-80
2023/06/10 16:15:49;;;;;;;8.10;7.40;;;;;;;20.89;68.54;98664.63;225573;1281;22551;-80
2023/06/10 16:21:17;;;;;;;7.80;7.20;;;;;;;21.01;68.67;98667.14;225633;1281;24502;-80
2023/06/10 16:26:35;;;;;;;7.10;6.60;;;;;;;21.11;68.92;98665.00;225513;1280;22540;-80
2023/06/10 16:31:39;;;;;;;8.80;8.00;;;;;;;21.19;69.26;98669.05;225726;1281;22589;-80
2023/06/10 16:36:49;;;;;;;8.10;7.50;;;;;;;21.26;69.50;98679.15;225999;1268;22575;-79
2023/06/10 16:42:01;;;;;;;9.40;8.60;;;;;;;21.29;69.56;98693.85;226027;1277;24452;-80
2023/06/10 16:47:07;;;;;;;9.00;8.20;;;;;;;21.29;69.81;98702.45;225997;1277;23419;-80
2023/06/10 16:52:22;;;;;;;9.10;7.80;;;;;;;21.28;70.23;98715.45;225985;1279;25322;-81
2023/06/10 16:57:29;;;;;;;7.90;7.00;;;;;;;21.27;70.28;98721.41;225982;1279;22554;-80
2023/06/10 17:02:49;;;;;;;8.20;7.50;;;;;;;21.25;70.67;98734.61;226193;1279;22592;-80
2023/06/10 17:08:05;;;;;;;9.30;7.90;;;;;;;21.18;70.77;98744.55;226088;1279;22543;-80
2023/06/10 17:13:11;;;;;;;8.40;7.70;;;;;;;21.06;70.89;98745.73;226003;1277;22546;-80
2023/06/10 17:19:00;;;;;;;8.90;8.00;;;;;;;20.97;71.02;98745.39;225974;1279;23020;-80
2023/06/10 17:24:03;;;;;;;7.70;6.80;;;;;;;20.92;71.20;98747.40;226179;1277;22527;-80
2023/06/10 17:29:07;;;;;;;7.80;7.10;;;;;;;20.90;71.01;98743.14;226163;1277;24241;-80
2023/06/10 17:34:21;;;;;;;8.80;7.10;;;;;;;20.88;70.94;98743.55;225989;1277;22543;-79
2023/06/10 17:39:29;;;;;;;8.20;6.80;;;;;;;20.86;70.87;98748.73;225983;1277;22547;-80
2023/06/10 17:44:36;;;;;;;9.10;6.70;;;;;;;20.83;70.99;98751.11;226233;1279;24331;-80
2023/06/10 17:49:51;;;;;;;8.50;7.20;;;;;;;20.82;71.08;98751.00;226187;1257;22551;-79
2023/06/10 17:55:12;;;;;;;8.00;7.20;;;;;;;20.80;71.03;98756.41;225943;1279;22574;-80
2023/06/10 18:00:23;;;;;;;7.20;6.20;;;;;;;20.73;71.23;98760.64;225970;1279;22536;-79
2023/06/10 18:05:34;;;;;;;7.00;6.00;;;;;;;20.64;71.26;98763.13;226197;1280;22559;-79
2023/06/10 18:10:51;;;;;;;8.00;6.30;;;;;;;20.56;71.55;98766.39;225915;1279;24376;-80
2023/06/10 18:16:07;;;;;;;7.00;6.00;;;;;;;20.48;71.71;98773.55;223495;1279;3266793;-80
2023/06/10 18:21:18;;;;;;;6.60;5.60;;;;;;;20.39;71.92;98772.85;226184;1279;22608;-80
2023/06/10 18:26:23;;;;;;;5.60;4.60;;;;;;;20.31;71.77;98779.67;225982;1277;22543;-80
2023/06/10 18:31:39;;;;;;;5.30;4.60;;;;;;;20.21;71.70;98789.04;226121;1279;22576;-81
2023/06/10 18:36:45;;;;;;;5.70;4.50;;;;;;;20.09;71.62;98789.42;226223;1276;22543;-80
2023/06/10 18:42:01;;;;;;;6.10;4.20;;;;;;;19.99;71.70;98794.73;226038;1277;22566;-80
2023/06/10 18:47:04;;;;;;;5.20;4.70;;;;;;;19.88;71.59;98800.52;226022;1277;22550;-80
2023/06/10 18:52:09;;;;;;;5.30;4.80;;;;;;;19.77;71.89;98802.02;225970;1279;22560;-80
2023/06/10 18:57:20;;;;;;;4.90;4.40;;;;;;;19.66;72.00;98804.35;226154;1280;22598;-79
2023/06/10 19:02:23;;;;;;;5.30;4.40;;;;;;;19.52;72.13;98813.25;225948;1280;22540;-78
2023/06/10 19:07:43;;;;;;;5.20;4.60;;;;;;;19.39;72.13;98822.25;225660;1281;22541;-79
2023/06/10 19:13:02;;;;;;;4.30;3.90;;;;;;;19.25;71.95;98829.72;225763;1278;22499;-80
2023/06/10 19:18:17;;;;;;;4.10;3.70;;;;;;;19.06;71.99;98834.53;225722;1280;22529;-79
2023/06/10 19:23:37;;;;;;;4.40;4.00;;;;;;;18.89;71.95;98837.61;225663;1281;25317;-79
2023/06/10 19:28:40;;;;;;;5.30;4.20;;;;;;;18.72;72.07;98832.26;225630;1281;22544;-78
2023/06/10 19:33:54;;;;;;;6.40;4.80;;;;;;;18.56;72.27;98838.05;225659;1281;22547;-80
2023/06/10 19:38:56;;;;;;;4.90;4.50;;;;;;;18.42;72.48;98839.13;225985;1279;22554;-80
2023/06/10 19:44:02;;;;;;;5.40;4.20;;;;;;;18.26;72.74;98841.65;225952;1278;22546;-79
2023/06/10 19:49:08;;;;;;;5.50;4.60;;;;;;;18.11;72.81;98845.77;225967;1278;22540;-79
2023/06/10 19:54:15;;;;;;;5.20;4.80;;;;;;;17.98;73.10;98854.79;226173;1279;22536;-79
2023/06/10 19:59:20;;;;;;;6.30;5.70;;;;;;;17.83;73.20;98849.50;226022;1279;22593;-80
2023/06/10 20:04:29;;;;;;;6.10;5.60;;;;;;;17.72;73.54;98857.02;225870;1279;24323;-79
2023/06/10 20:09:34;;;;;;;7.30;6.60;;;;;;;17.60;73.78;98860.04;225941;1279;22550;-79
2023/06/10 20:14:51;;;;;;;7.40;5.90;;;;;;;17.48;74.05;98861.41;225958;1278;22615;-79
2023/06/10 20:20:05;;;;;;;6.80;6.00;;;;;;;17.37;74.25;98856.48;226037;1273;25266;-79
2023/06/10 20:25:12;;;;;;;7.70;6.50;;;;;;;17.29;74.43;98850.67;225993;1279;22540;-79
2023/06/10 20:30:15;;;;;;;6.10;5.50;;;;;;;17.20;74.53;98848.70;226154;1277;22552;-79
2023/06/10 20:35:28;;;;;;;6.60;5.90;;;;;;;17.14;74.91;98857.04;225948;1279;22564;-79
2023/06/10 20:40:48;;;;;;;7.60;6.90;;;;;;;17.10;74.94;98863.11;226168;1279;22575;-79
2023/06/10 20:45:57;;;;;;;7.30;6.60;;;;;;;17.04;74.83;98869.07;226173;1269;22578;-79
2023/06/10 20:51:02;;;;;;;9.40;8.40;;;;;;;16.98;75.10;98868.95;225921;1279;22542;-79
2023/06/10 20:56:12;;;;;;;9.20;8.10;;;;;;;16.91;75.20;98868.44;225915;1279;22610;-78
2023/06/10 21:01:20;;;;;;;11.00;9.10;;;;;;;16.82;75.25;98874.30;226036;1279;22548;-79
2023/06/10 21:06:31;;;;;;;10.80;9.40;;;;;;;16.74;75.53;98873.06;226004;1279;23014;-79
2023/06/10 21:11:36;;;;;;;11.20;9.60;;;;;;;16.67;76.01;98877.70;226195;1276;22543;-79
2023/06/10 21:16:45;;;;;;;10.10;9.10;;;;;;;16.62;76.11;98878.77;226164;1279;22592;-79
2023/06/10 21:21:50;;;;;;;9.90;9.00;;;;;;;16.56;76.27;98881.75;225970;1279;22551;-79
2023/06/10 21:26:53;;;;;;;10.10;9.10;;;;;;;16.47;76.14;98883.16;226133;1276;22617;-80
2023/06/10 21:32:31;;;;;;;11.00;9.00;;;;;;;16.38;76.34;98883.67;226117;1260;22552;-79
2023/06/10 21:37:34;;;;;;;9.40;8.60;;;;;;;16.30;76.76;98886.62;226132;1276;25274;-80
2023/06/10 21:42:48;;;;;;;9.90;8.90;;;;;;;16.21;76.85;98885.34;225986;1279;22551;-79
2023/06/10 21:48:04;;;;;;;9.60;8.70;;;;;;;16.14;77.03;98885.23;226219;1279;24485;-79
2023/06/10 21:53:30;;;;;;;12.30;11.00;;;;;;;16.07;77.39;98885.85;226098;1276;22514;-81
2023/06/10 21:58:34;;;;;;;12.80;11.60;;;;;;;16.01;77.40;98887.77;225938;1273;22566;-79
2023/06/10 22:03:56;;;;;;;12.40;11.20;;;;;;;15.94;77.65;98887.71;226176;1279;22565;-79
2023/06/10 22:09:05;;;;;;;11.80;10.60;;;;;;;15.87;77.91;98881.80;226125;1279;22556;-79
2023/06/10 22:15:04;;;;;;;11.30;10.20;;;;;;;15.79;77.93;98881.98;226150;1279;22579;-79
2023/06/10 22:20:33;;;;;;;12.30;11.20;;;;;;;15.70;78.28;98882.69;226041;1275;22577;-80
2023/06/10 22:27:08;;;;;;;13.10;11.80;;;;;;;15.61;78.54;98878.04;225976;1279;22540;-79
2023/06/10 22:32:14;;;;;;;14.90;13.40;;;;;;;15.51;78.52;98875.98;226094;1279;22547;-79
2023/06/10 22:37:52;;;;;;;14.80;13.30;;;;;;;15.43;78.87;98878.45;225892;1279;22550;-79
2023/06/10 22:43:21;;;;;;;19.10;16.10;;;;;;;15.37;79.11;98871.73;226105;1279;22547;-78
2023/06/10 22:48:26;;;;;;;18.30;16.50;;;;;;;15.30;79.07;98869.11;226085;1276;24223;-79
2023/06/10 22:53:32;;;;;;;20.20;18.30;;;;;;;15.24;79.51;98870.86;225960;1273;22532;-78
2023/06/10 22:58:35;;;;;;;18.50;16.80;;;;;;;15.18;79.66;98873.80;225862;1279;22577;-78
2023/06/10 23:03:48;;;;;;;17.40;15.60;;;;;;;15.14;79.96;98878.98;226017;1279;24239;-78
2023/06/10 23:09:26;;;;;;;16.70;15.00;;;;;;;15.08;80.19;98878.77;226079;1279;22543;-79
2023/06/10 23:14:33;;;;;;;15.30;13.80;;;;;;;15.03;80.23;98879.98;226077;1279;22620;-78
2023/06/10 23:19:43;;;;;;;16.30;14.30;;;;;;;14.98;80.22;98879.21;226027;1279;24422;-79
2023/06/10 23:24:47;;;;;;;15.90;14.30;;;;;;;14.91;80.59;98874.54;226033;1279;22565;-79
2023/06/10 23:30:51;;;;;;;15.10;13.50;;;;;;;14.84;80.70;98877.28;225972;1279;22546;-80
2023/06/10 23:37:04;;;;;;;15.10;13.60;;;;;;;14.76;80.81;98876.78;226111;1279;22566;-79
2023/06/10 23:42:38;;;;;;;14.80;13.40;;;;;;;14.66;81.20;98877.89;226132;1276;22547;-79
2023/06/10 23:48:06;;;;;;;15.70;14.10;;;;;;;14.59;81.07;98880.75;226248;1276;22583;-79
2023/06/10 23:53:31;;;;;;;15.60;14.10;;;;;;;14.51;81.29;98887.71;226157;1273;24373;-79
2023/06/10 23:58:53;;;;;;;18.20;15.40;;;;;;;14.44;81.52;98884.20;225952;1279;22577;-79
